createdAt,value
2023-10-18T00:04:52.535Z,100.00
2023-10-18T00:09:56.243Z,100.00
2023-10-18T00:14:58.728Z,100.00
2023-10-18T00:20:01.440Z,100.00
2023-10-18T00:25:04.066Z,100.00
2023-10-18T00:30:13.224Z,100.00
2023-10-18T00:35:33.191Z,100.00
2023-10-18T00:40:38.186Z,100.00
2023-10-18T00:45:45.256Z,100.00
2023-10-18T00:50:52.902Z,100.00
2023-10-18T00:56:00.487Z,100.00
2023-10-18T01:01:14.023Z,100.00
2023-10-18T01:06:23.586Z,100.00
2023-10-18T01:11:32.712Z,100.00
2023-10-18T01:16:38.093Z,100.00
2023-10-18T01:21:46.351Z,100.00
2023-10-18T01:26:48.981Z,100.00
2023-10-18T01:31:52.218Z,100.00
2023-10-18T01:36:57.621Z,100.00
2023-10-18T01:42:01.260Z,100.00
2023-10-18T01:47:10.014Z,100.00
2023-10-18T01:52:15.162Z,100.00
2023-10-18T01:57:18.405Z,100.00
2023-10-18T02:02:21.862Z,100.00
2023-10-18T02:07:27.233Z,100.00
2023-10-18T02:12:31.281Z,100.00
2023-10-18T02:17:34.795Z,100.00
2023-10-18T02:22:38.321Z,100.00
2023-10-18T02:27:40.947Z,100.00
2023-10-18T02:32:43.423Z,100.00
2023-10-18T02:37:45.893Z,100.00
2023-10-18T02:42:48.345Z,100.00
2023-10-18T02:47:53.685Z,100.00
2023-10-18T02:52:55.966Z,100.00
2023-10-18T02:57:58.372Z,100.00
2023-10-18T03:03:02.470Z,100.00
2023-10-18T03:08:05.726Z,100.00
2023-10-18T03:13:12.418Z,100.00
2023-10-18T03:18:17.289Z,100.00
2023-10-18T03:23:21.130Z,100.00
2023-10-18T03:28:24.797Z,100.00
2023-10-18T03:33:29.293Z,100.00
2023-10-18T03:38:40.425Z,100.00
2023-10-18T03:43:42.932Z,100.00
2023-10-18T03:48:55.134Z,100.00
2023-10-18T03:54:01.158Z,100.00
2023-10-18T03:59:31.408Z,100.00
2023-10-18T04:04:38.886Z,100.00
2023-10-18T04:09:47.084Z,100.00
2023-10-18T04:15:02.030Z,100.00
2023-10-18T04:20:29.681Z,100.00
2023-10-18T04:25:32.480Z,100.00
2023-10-18T04:30:37.787Z,100.00
2023-10-18T04:35:46.407Z,100.00
2023-10-18T04:41:01.622Z,100.00
2023-10-18T04:46:13.954Z,100.00
2023-10-18T04:51:29.804Z,100.00
2023-10-18T04:56:47.688Z,100.00
2023-10-18T05:01:57.214Z,100.00
2023-10-18T05:07:02.509Z,100.00
2023-10-18T05:12:11.344Z,100.00
2023-10-18T05:17:23.871Z,100.00
2023-10-18T05:22:27.133Z,100.00
2023-10-18T05:27:36.284Z,100.00
2023-10-18T05:32:50.235Z,100.00
2023-10-18T05:38:00.519Z,100.00
2023-10-18T05:43:35.435Z,100.00
2023-10-18T05:48:41.961Z,100.00
2023-10-18T05:53:44.421Z,100.00
2023-10-18T05:58:46.874Z,100.00
2023-10-18T06:03:49.353Z,100.00
2023-10-18T06:08:51.617Z,100.00
2023-10-18T06:13:54.070Z,100.00
2023-10-18T06:19:00.345Z,100.00
2023-10-18T06:24:09.390Z,100.00
2023-10-18T06:29:13.264Z,100.00
2023-10-18T06:34:18.900Z,100.00
2023-10-18T06:39:29.224Z,100.00
2023-10-18T06:44:32.264Z,100.00
2023-10-18T06:49:34.611Z,100.00
2023-10-18T06:54:39.857Z,100.00
2023-10-18T06:59:47.877Z,100.00
2023-10-18T07:04:55.221Z,100.00
2023-10-18T07:09:59.006Z,100.00
2023-10-18T07:15:01.268Z,100.00
2023-10-18T07:20:03.962Z,100.00
2023-10-18T07:25:09.723Z,100.00
2023-10-18T07:30:15.826Z,100.00
2023-10-18T07:35:32.656Z,100.00
2023-10-18T07:40:34.845Z,100.00
2023-10-18T07:45:37.152Z,100.00
2023-10-18T07:50:39.307Z,100.00
2023-10-18T07:55:44.439Z,100.00
2023-10-18T08:01:02.057Z,100.00
2023-10-18T08:06:27.114Z,100.00
2023-10-18T08:11:32.954Z,100.00
2023-10-18T08:16:44.016Z,100.00
2023-10-18T08:22:00.936Z,100.00
2023-10-18T08:27:10.201Z,100.00
2023-10-18T08:32:19.345Z,100.00
2023-10-18T08:37:21.501Z,100.00
2023-10-18T08:42:31.248Z,100.00
2023-10-18T08:47:36.590Z,100.00
2023-10-18T08:52:40.760Z,100.00
2023-10-18T08:57:43.224Z,100.00
2023-10-18T09:02:45.433Z,100.00
2023-10-18T09:07:49.920Z,100.00
2023-10-18T09:12:52.227Z,100.00
2023-10-18T09:17:55.508Z,100.00
2023-10-18T09:23:04.369Z,100.00
2023-10-18T09:28:11.075Z,100.00
2023-10-18T09:33:14.124Z,100.00
2023-10-18T09:38:19.589Z,100.00
2023-10-18T09:43:22.987Z,100.00
2023-10-18T09:48:25.134Z,100.00
2023-10-18T09:53:27.492Z,100.00
2023-10-18T09:58:30.097Z,99.97
2023-10-18T10:03:33.050Z,100.00
2023-10-18T10:08:36.548Z,99.31
2023-10-18T10:13:40.007Z,98.10
2023-10-18T10:18:44.038Z,97.87
2023-10-18T10:23:46.372Z,96.94
2023-10-18T10:29:14.742Z,96.55
2023-10-18T10:34:20.920Z,94.54
2023-10-18T10:39:24.541Z,91.63
2023-10-18T10:44:31.509Z,93.17
2023-10-18T10:49:49.506Z,91.52
2023-10-18T10:54:52.158Z,91.62
2023-10-18T10:59:56.319Z,90.19
2023-10-18T11:04:58.729Z,89.27
2023-10-18T11:10:05.540Z,89.02
2023-10-18T11:15:16.874Z,88.74
2023-10-18T11:20:30.269Z,88.68
2023-10-18T11:25:34.527Z,88.45
2023-10-18T11:30:38.402Z,87.24
2023-10-18T11:35:43.964Z,85.15
2023-10-18T11:40:51.055Z,85.18
2023-10-18T11:46:09.431Z,84.73
2023-10-18T11:51:14.299Z,85.13
2023-10-18T11:56:17.969Z,84.95
2023-10-18T12:01:20.414Z,82.98
2023-10-18T12:06:26.004Z,83.89
2023-10-18T12:11:28.119Z,82.35
2023-10-18T12:16:33.076Z,82.57
2023-10-18T12:21:35.331Z,82.56
2023-10-18T12:26:38.150Z,81.59
2023-10-18T12:31:41.809Z,80.47
2023-10-18T12:36:50.817Z,79.47
2023-10-18T12:41:58.818Z,79.77
2023-10-18T12:47:09.974Z,78.05
2023-10-18T12:52:48.087Z,78.70
2023-10-18T12:57:50.348Z,78.53
2023-10-18T13:02:55.719Z,78.67
2023-10-18T13:08:03.641Z,77.68
2023-10-18T13:13:05.927Z,77.53
2023-10-18T13:18:12.707Z,77.38
2023-10-18T13:23:19.689Z,75.97
2023-10-18T13:28:34.705Z,74.88
2023-10-18T13:33:39.600Z,74.38
2023-10-18T13:38:41.755Z,73.59
2023-10-18T13:43:44.464Z,74.75
2023-10-18T13:48:47.227Z,74.10
2023-10-18T13:53:53.557Z,73.30
2023-10-18T13:58:56.009Z,73.62
2023-10-18T14:04:02.144Z,72.55
2023-10-18T14:09:06.460Z,72.46
2023-10-18T14:14:08.723Z,72.74
2023-10-18T14:19:12.181Z,71.32
2023-10-18T14:24:16.196Z,71.79
2023-10-18T14:29:18.610Z,71.69
2023-10-18T14:34:23.203Z,71.53
2023-10-18T14:39:38.072Z,71.44
2023-10-18T14:44:42.346Z,71.58
2023-10-18T14:49:44.958Z,71.68
2023-10-18T14:54:47.537Z,71.41
2023-10-18T14:59:49.902Z,71.04
2023-10-18T15:04:52.839Z,71.14
2023-10-18T15:09:55.490Z,70.97
2023-10-18T15:14:57.603Z,70.74
2023-10-18T15:19:59.790Z,70.49
2023-10-18T15:25:04.969Z,70.51
2023-10-18T15:30:07.996Z,70.62
2023-10-18T15:35:12.904Z,71.21
2023-10-18T15:40:15.121Z,71.71
2023-10-18T15:45:18.583Z,72.22
2023-10-18T15:50:21.154Z,72.76
2023-10-18T15:55:23.414Z,73.31
2023-10-18T16:00:29.107Z,73.97
2023-10-18T16:05:32.288Z,74.36
2023-10-18T16:10:34.560Z,74.69
2023-10-18T16:15:36.754Z,75.01
2023-10-18T16:20:39.175Z,75.35
2023-10-18T16:25:42.018Z,75.67
2023-10-18T16:30:46.511Z,76.01
2023-10-18T16:35:55.273Z,76.47
2023-10-18T16:41:04.797Z,77.11
2023-10-18T16:46:08.581Z,77.40
2023-10-18T16:51:16.261Z,77.81
2023-10-18T16:56:19.588Z,78.10
2023-10-18T17:01:23.114Z,78.65
2023-10-18T17:06:25.801Z,79.13
2023-10-18T17:11:28.478Z,79.34
2023-10-18T17:16:32.628Z,79.38
2023-10-18T17:21:36.511Z,80.00
2023-10-18T17:26:39.905Z,80.37
2023-10-18T17:31:43.364Z,80.44
2023-10-18T17:36:46.050Z,80.67
2023-10-18T17:41:49.590Z,80.76
2023-10-18T17:46:53.645Z,80.99
2023-10-18T17:51:56.890Z,81.31
2023-10-18T17:56:59.498Z,81.59
2023-10-18T18:02:02.179Z,81.84
2023-10-18T18:07:05.553Z,81.73
2023-10-18T18:12:09.134Z,82.10
2023-10-18T18:17:14.432Z,82.43
2023-10-18T18:22:17.614Z,82.52
2023-10-18T18:27:21.118Z,82.66
2023-10-18T18:32:24.026Z,83.64
2023-10-18T18:37:28.138Z,83.51
2023-10-18T18:42:33.484Z,83.85
2023-10-18T18:47:42.044Z,83.87
2023-10-18T18:52:46.467Z,83.93
2023-10-18T18:57:51.000Z,83.99
2023-10-18T19:02:55.821Z,84.58
2023-10-18T19:07:59.878Z,84.46
2023-10-18T19:13:04.012Z,84.75
2023-10-18T19:18:07.818Z,84.95
2023-10-18T19:23:11.707Z,84.85
2023-10-18T19:28:16.942Z,85.50
2023-10-18T19:33:21.950Z,85.50
2023-10-18T19:38:26.631Z,85.57
2023-10-18T19:43:30.011Z,85.77
2023-10-18T19:48:33.489Z,86.24
2023-10-18T19:53:38.756Z,86.18
2023-10-18T19:58:42.259Z,86.37
2023-10-18T20:03:44.977Z,86.47
2023-10-18T20:08:48.087Z,86.55
2023-10-18T20:13:51.138Z,86.78
2023-10-18T20:18:54.067Z,86.81
2023-10-18T20:23:56.894Z,87.00
2023-10-18T20:28:59.270Z,87.05
2023-10-18T20:34:01.847Z,87.26
2023-10-18T20:39:04.344Z,87.44
2023-10-18T20:44:28.304Z,87.61
2023-10-18T20:49:33.278Z,87.78
2023-10-18T20:54:37.871Z,88.14
2023-10-18T20:59:45.928Z,88.51
2023-10-18T21:04:48.318Z,88.72
2023-10-18T21:09:51.420Z,88.84
2023-10-18T21:14:53.945Z,89.21
2023-10-18T21:19:56.134Z,89.29
2023-10-18T21:25:02.635Z,89.54
2023-10-18T21:30:10.454Z,89.86
2023-10-18T21:35:13.055Z,89.93
2023-10-18T21:40:20.816Z,90.02
2023-10-18T21:45:23.102Z,90.41
2023-10-18T21:50:25.318Z,90.59
2023-10-18T21:55:27.561Z,90.97
2023-10-18T22:00:29.827Z,91.26
2023-10-18T22:05:31.975Z,91.29
2023-10-18T22:10:45.405Z,91.45
2023-10-18T22:16:05.544Z,91.79
2023-10-18T22:21:07.832Z,91.79
2023-10-18T22:26:21.407Z,91.81
2023-10-18T22:31:23.925Z,91.81
2023-10-18T22:36:27.912Z,92.34
2023-10-18T22:41:33.137Z,92.23
2023-10-18T22:46:41.625Z,92.09
2023-10-18T22:51:48.213Z,92.03
2023-10-18T22:56:50.285Z,92.16
2023-10-18T23:01:52.521Z,92.27
2023-10-18T23:06:58.117Z,92.43
2023-10-18T23:12:00.260Z,92.49
2023-10-18T23:17:02.478Z,92.53
2023-10-18T23:22:20.971Z,92.71
2023-10-18T23:27:41.939Z,92.56
2023-10-18T23:32:47.028Z,92.72
2023-10-18T23:37:56.083Z,93.24
2023-10-18T23:43:30.633Z,93.33
2023-10-18T23:48:47.856Z,93.97
2023-10-18T23:53:50.534Z,93.98
2023-10-18T23:58:52.771Z,94.42
